createdAt,value
2019-05-03T00:02:02.009Z,74.06
2019-05-03T00:04:31.593Z,74.01
2019-05-03T00:06:59.978Z,74.36
2019-05-03T00:09:28.379Z,74.54
2019-05-03T00:11:56.763Z,74.84
2019-05-03T00:14:25.655Z,75.09
2019-05-03T00:16:54.121Z,74.85
2019-05-03T00:19:22.524Z,75.03
2019-05-03T00:21:52.597Z,75.21
2019-05-03T00:24:22.600Z,75.28
2019-05-03T00:26:51.627Z,75.54
2019-05-03T00:29:21.868Z,75.34
2019-05-03T00:31:51.649Z,75.79
2019-05-03T00:34:32.352Z,75.21
2019-05-03T00:37:14.105Z,75.12
2019-05-03T00:39:47.071Z,75.13
2019-05-03T00:42:15.459Z,75.34
2019-05-03T00:44:43.859Z,75.40
2019-05-03T00:47:12.625Z,75.80
2019-05-03T00:49:42.591Z,75.46
2019-05-03T00:52:11.672Z,74.23
2019-05-03T00:54:42.232Z,75.38
2019-05-03T00:57:12.014Z,75.20
2019-05-03T00:59:42.007Z,75.05
2019-05-03T01:02:11.858Z,75.69
2019-05-03T01:04:42.558Z,75.54
2019-05-03T01:07:11.745Z,75.31
2019-05-03T01:09:42.290Z,75.38
2019-05-03T01:12:12.462Z,75.17
2019-05-03T01:14:42.151Z,75.14
2019-05-03T01:17:11.726Z,75.67
2019-05-03T01:19:40.179Z,74.86
2019-05-03T01:22:08.560Z,75.68
2019-05-03T01:24:36.951Z,75.76
2019-05-03T01:27:05.342Z,76.03
2019-05-03T01:29:33.748Z,76.29
2019-05-03T01:32:02.459Z,76.22
2019-05-03T01:34:32.595Z,76.54
2019-05-03T01:37:02.584Z,76.27
2019-05-03T01:39:31.640Z,76.56
2019-05-03T01:42:00.227Z,76.66
2019-05-03T01:44:28.612Z,76.51
2019-05-03T01:46:58.657Z,76.82
2019-05-03T01:49:42.575Z,76.83
2019-05-03T01:52:14.795Z,76.36
2019-05-03T01:54:43.194Z,76.62
2019-05-03T01:57:11.693Z,77.23
2019-05-03T01:59:40.053Z,77.01
2019-05-03T02:02:26.479Z,77.05
2019-05-03T02:05:15.078Z,76.84
2019-05-03T02:07:43.469Z,77.10
2019-05-03T02:10:12.196Z,76.90
2019-05-03T02:12:41.669Z,77.04
2019-05-03T02:15:11.926Z,76.96
2019-05-03T02:17:42.506Z,76.79
2019-05-03T02:20:12.439Z,76.78
2019-05-03T02:22:42.606Z,76.91
2019-05-03T02:25:12.432Z,77.12
2019-05-03T02:27:42.328Z,77.60
2019-05-03T02:30:14.100Z,77.80
2019-05-03T02:32:43.987Z,77.08
2019-05-03T02:35:14.013Z,77.59
2019-05-03T02:37:43.969Z,77.38
2019-05-03T02:40:13.198Z,77.95
2019-05-03T02:42:46.105Z,77.45
2019-05-03T02:45:18.841Z,77.41
2019-05-03T02:47:48.870Z,77.68
2019-05-03T02:50:18.646Z,77.36
2019-05-03T02:52:47.029Z,77.30
2019-05-03T02:55:16.259Z,77.12
2019-05-03T02:57:46.503Z,76.79
2019-05-03T03:00:16.644Z,76.89
2019-05-03T03:02:45.781Z,77.59
2019-05-03T03:05:16.714Z,78.13
2019-05-03T03:07:46.694Z,78.06
2019-05-03T03:10:16.348Z,78.08
2019-05-03T03:12:46.798Z,77.42
2019-05-03T03:15:16.317Z,77.92
2019-05-03T03:17:47.043Z,78.39
2019-05-03T03:20:16.405Z,78.40
2019-05-03T03:22:45.628Z,78.41
2019-05-03T03:25:17.635Z,79.27
2019-05-03T03:27:47.903Z,79.24
2019-05-03T03:30:37.971Z,79.82
2019-05-03T03:33:08.934Z,79.57
2019-05-03T03:35:38.914Z,79.07
2019-05-03T03:38:08.015Z,79.90
2019-05-03T03:40:37.988Z,80.14
2019-05-03T03:43:08.258Z,80.75
2019-05-03T03:45:38.701Z,80.51
2019-05-03T03:48:10.450Z,81.11
2019-05-03T03:50:41.846Z,81.04
2019-05-03T03:53:12.281Z,81.72
2019-05-03T03:55:45.661Z,81.37
2019-05-03T03:58:17.670Z,81.75
2019-05-03T04:00:46.194Z,81.62
2019-05-03T04:03:15.741Z,81.88
2019-05-03T04:05:46.784Z,82.41
2019-05-03T04:08:16.172Z,82.21
2019-05-03T04:10:46.416Z,81.60
2019-05-03T04:13:16.133Z,81.98
2019-05-03T04:15:46.231Z,81.08
2019-05-03T04:18:32.594Z,82.10
2019-05-03T04:21:01.049Z,81.17
2019-05-03T04:23:31.922Z,81.09
2019-05-03T04:26:00.818Z,81.20
2019-05-03T04:28:29.482Z,81.69
2019-05-03T04:30:57.884Z,82.03
2019-05-03T04:33:27.060Z,82.14
2019-05-03T04:35:55.851Z,81.70
2019-05-03T04:38:25.779Z,81.89
2019-05-03T04:40:56.161Z,81.87
2019-05-03T04:43:26.442Z,82.45
2019-05-03T04:46:06.694Z,82.06
2019-05-03T04:48:35.823Z,83.01
2019-05-03T04:51:05.914Z,82.51
2019-05-03T04:53:36.225Z,82.55
2019-05-03T04:56:05.720Z,82.83
2019-05-03T04:58:36.367Z,82.73
2019-05-03T05:01:06.209Z,83.60
2019-05-03T05:03:36.124Z,82.00
2019-05-03T05:06:06.238Z,82.85
2019-05-03T05:08:35.791Z,83.02
2019-05-03T05:11:05.809Z,82.29
2019-05-03T05:13:35.612Z,82.79
2019-05-03T05:16:05.892Z,84.29
2019-05-03T05:18:36.266Z,83.87
2019-05-03T05:21:06.368Z,84.60
2019-05-03T05:23:35.452Z,85.12
2019-05-03T05:26:11.196Z,85.38
2019-05-03T05:28:41.217Z,85.74
2019-05-03T05:31:09.608Z,85.62
2019-05-03T05:33:37.993Z,86.04
2019-05-03T05:36:06.383Z,86.40
2019-05-03T05:38:34.820Z,86.42
2019-05-03T05:41:05.155Z,86.65
2019-05-03T05:43:33.279Z,86.82
2019-05-03T05:46:01.727Z,86.89
2019-05-03T05:48:34.951Z,87.07
2019-05-03T05:51:04.438Z,87.29
2019-05-03T05:53:32.891Z,87.40
2019-05-03T05:56:11.716Z,87.50
2019-05-03T05:58:41.827Z,87.65
2019-05-03T06:01:14.473Z,87.73
2019-05-03T06:03:44.765Z,87.61
2019-05-03T06:06:15.289Z,87.53
2019-05-03T06:08:45.359Z,87.56
2019-05-03T06:11:30.427Z,87.47
2019-05-03T06:14:09.454Z,87.52
2019-05-03T06:16:39.489Z,87.66
2019-05-03T06:19:15.512Z,87.71
2019-05-03T06:22:00.522Z,87.68
2019-05-03T06:24:46.678Z,87.74
2019-05-03T06:27:16.715Z,87.73
2019-05-03T06:29:46.495Z,87.68
2019-05-03T06:32:22.590Z,87.59
2019-05-03T06:34:50.982Z,87.65
2019-05-03T06:37:21.024Z,87.69
2019-05-03T06:39:49.474Z,87.63
2019-05-03T06:42:19.403Z,87.68
2019-05-03T06:44:47.976Z,87.71
2019-05-03T06:47:16.367Z,87.80
2019-05-03T06:49:48.325Z,87.87
2019-05-03T06:52:14.909Z,87.78
2019-05-03T06:54:44.920Z,87.83
2019-05-03T06:57:15.130Z,87.78
2019-05-03T06:59:45.296Z,87.51
2019-05-03T07:02:21.637Z,87.47
2019-05-03T07:04:51.667Z,87.59
2019-05-03T07:07:27.770Z,87.71
2019-05-03T07:09:55.945Z,87.65
2019-05-03T07:12:25.010Z,87.74
2019-05-03T07:14:54.881Z,87.84
2019-05-03T07:17:24.803Z,87.86
2019-05-03T07:19:54.632Z,87.91
2019-05-03T07:22:24.440Z,87.83
2019-05-03T07:24:54.631Z,87.88
2019-05-03T07:27:24.810Z,87.61
2019-05-03T07:29:55.495Z,87.67
2019-05-03T07:32:24.714Z,87.65
2019-05-03T07:34:55.478Z,87.61
2019-05-03T07:37:24.609Z,87.59
2019-05-03T07:39:53.049Z,87.08
2019-05-03T07:42:21.435Z,87.21
2019-05-03T07:44:49.896Z,87.29
2019-05-03T07:47:18.339Z,87.17
2019-05-03T07:49:46.712Z,86.78
2019-05-03T07:52:15.108Z,87.12
2019-05-03T07:54:45.180Z,86.36
2019-05-03T07:57:25.488Z,86.79
2019-05-03T07:59:55.666Z,86.36
2019-05-03T08:02:26.855Z,85.59
2019-05-03T08:04:54.862Z,83.45
2019-05-03T08:07:25.508Z,82.22
2019-05-03T08:09:55.514Z,83.18
2019-05-03T08:12:24.677Z,82.98
2019-05-03T08:14:55.099Z,82.86
2019-05-03T08:17:25.361Z,83.25
2019-05-03T08:19:55.210Z,83.98
2019-05-03T08:22:25.620Z,84.44
2019-05-03T08:24:55.534Z,84.53
2019-05-03T08:27:25.148Z,84.36
2019-05-03T08:29:55.665Z,83.98
2019-05-03T08:32:28.443Z,83.57
2019-05-03T08:35:15.237Z,84.32
2019-05-03T08:37:45.480Z,83.79
2019-05-03T08:40:15.590Z,84.19
2019-05-03T08:42:44.500Z,84.39
2019-05-03T08:45:14.827Z,84.01
2019-05-03T08:47:45.046Z,84.51
2019-05-03T08:50:20.684Z,83.96
2019-05-03T08:52:45.232Z,84.14
2019-05-03T08:55:15.842Z,83.03
2019-05-03T08:57:44.917Z,82.24
2019-05-03T09:00:15.643Z,83.00
2019-05-03T09:02:44.759Z,83.07
2019-05-03T09:05:15.306Z,82.77
2019-05-03T09:07:44.740Z,80.29
2019-05-03T09:10:16.769Z,80.32
2019-05-03T09:13:05.966Z,81.21
2019-05-03T09:15:35.082Z,79.95
2019-05-03T09:18:04.816Z,78.58
2019-05-03T09:20:35.572Z,79.68
2019-05-03T09:23:05.357Z,76.03
2019-05-03T09:25:35.508Z,75.75
2019-05-03T09:28:04.770Z,74.77
2019-05-03T09:30:35.554Z,76.06
2019-05-03T09:33:05.998Z,75.30
2019-05-03T09:35:35.913Z,74.53
2019-05-03T09:38:05.752Z,72.89
2019-05-03T09:40:35.259Z,70.92
2019-05-03T09:43:04.549Z,70.58
2019-05-03T09:45:35.122Z,70.01
2019-05-03T09:48:05.443Z,68.08
2019-05-03T09:50:35.678Z,70.99
2019-05-03T09:53:05.482Z,70.31
2019-05-03T09:55:41.189Z,68.49
2019-05-03T09:58:09.580Z,63.44
2019-05-03T10:00:37.981Z,65.82
2019-05-03T10:03:06.373Z,63.56
2019-05-03T10:05:35.297Z,63.82
2019-05-03T10:08:05.068Z,64.75
2019-05-03T10:10:35.727Z,62.65
2019-05-03T10:13:13.185Z,60.06
2019-05-03T10:15:41.038Z,60.82
2019-05-03T10:18:13.543Z,60.49
2019-05-03T10:20:45.117Z,59.47
2019-05-03T10:23:15.283Z,59.62
2019-05-03T10:25:45.499Z,59.13
2019-05-03T10:28:15.301Z,60.27
2019-05-03T10:30:46.989Z,58.46
2019-05-03T10:33:20.539Z,58.01
2019-05-03T10:35:50.894Z,58.49
2019-05-03T10:38:24.615Z,58.03
2019-05-03T10:40:56.415Z,58.09
2019-05-03T10:43:28.666Z,57.62
2019-05-03T10:45:57.078Z,58.92
2019-05-03T10:48:29.115Z,58.20
2019-05-03T10:51:00.915Z,58.72
2019-05-03T10:53:39.598Z,56.33
2019-05-03T10:56:23.212Z,58.08
2019-05-03T10:58:56.855Z,56.91
2019-05-03T11:01:31.099Z,57.57
2019-05-03T11:04:01.573Z,59.43
2019-05-03T11:06:35.372Z,60.61
2019-05-03T11:09:08.568Z,59.44
2019-05-03T11:11:40.828Z,60.19
2019-05-03T11:14:14.749Z,58.33
2019-05-03T11:16:46.307Z,57.76
2019-05-03T11:19:18.498Z,56.02
2019-05-03T11:21:49.557Z,55.33
2019-05-03T11:24:23.549Z,54.91
2019-05-03T11:26:56.496Z,54.96
2019-05-03T11:29:26.824Z,55.13
2019-05-03T11:32:14.892Z,54.40
2019-05-03T11:35:01.712Z,53.95
2019-05-03T11:37:40.588Z,54.65
2019-05-03T11:40:12.833Z,53.94
2019-05-03T11:42:45.383Z,54.23
2019-05-03T11:45:17.789Z,51.62
2019-05-03T11:47:48.470Z,50.77
2019-05-03T11:50:19.533Z,49.83
2019-05-03T11:52:51.238Z,49.60
2019-05-03T11:55:19.613Z,49.61
2019-05-03T11:57:48.083Z,49.08
2019-05-03T12:00:19.699Z,49.57
2019-05-03T12:02:49.855Z,49.93
2019-05-03T12:05:25.346Z,50.16
2019-05-03T12:07:55.114Z,49.66
2019-05-03T12:10:36.368Z,50.15
2019-05-03T12:12:58.290Z,49.58
2019-05-03T12:15:28.720Z,49.58
2019-05-03T12:18:01.615Z,49.63
2019-05-03T12:20:33.340Z,50.27
2019-05-03T12:23:08.555Z,49.04
2019-05-03T12:25:41.434Z,48.45
2019-05-03T12:28:12.212Z,47.81
2019-05-03T12:30:44.749Z,48.34
2019-05-03T12:33:17.673Z,48.90
2019-05-03T12:35:46.391Z,49.03
2019-05-03T12:38:19.383Z,48.21
2019-05-03T12:40:50.653Z,47.80
2019-05-03T12:43:23.057Z,46.95
2019-05-03T12:45:54.256Z,47.25
2019-05-03T12:48:24.577Z,47.50
2019-05-03T12:50:56.991Z,47.05
2019-05-03T12:53:29.250Z,45.87
2019-05-03T12:55:57.912Z,46.17
2019-05-03T12:58:47.336Z,45.73
2019-05-03T13:01:40.716Z,46.22
2019-05-03T13:04:05.848Z,43.93
2019-05-03T13:06:38.138Z,44.61
2019-05-03T13:09:10.471Z,45.77
2019-05-03T13:11:51.912Z,46.46
2019-05-03T13:14:15.711Z,46.57
2019-05-03T13:16:45.818Z,47.21
2019-05-03T13:19:15.203Z,47.29
2019-05-03T13:21:46.060Z,47.45
2019-05-03T13:24:22.891Z,48.12
2019-05-03T13:26:46.438Z,48.13
2019-05-03T13:29:19.201Z,48.16
2019-05-03T13:31:59.227Z,47.72
2019-05-03T13:34:24.846Z,48.81
2019-05-03T13:36:57.103Z,49.45
2019-05-03T13:39:28.347Z,49.06
2019-05-03T13:42:20.117Z,47.84
2019-05-03T13:44:50.299Z,45.46
2019-05-03T13:47:22.859Z,46.17
2019-05-03T13:49:55.174Z,46.18
2019-05-03T13:52:25.086Z,45.99
2019-05-03T13:54:54.594Z,45.16
2019-05-03T13:57:24.601Z,44.21
2019-05-03T13:59:54.962Z,43.43
2019-05-03T14:02:23.071Z,43.06
2019-05-03T14:04:52.934Z,43.64
2019-05-03T14:07:21.384Z,43.26
2019-05-03T14:09:49.770Z,43.03
2019-05-03T14:12:18.155Z,43.78
2019-05-03T14:14:55.363Z,43.72
2019-05-03T14:17:25.411Z,43.36
2019-05-03T14:20:01.327Z,40.55
2019-05-03T14:22:31.337Z,40.15
2019-05-03T14:24:59.753Z,40.87
2019-05-03T14:27:28.139Z,41.37
2019-05-03T14:29:56.531Z,41.68
2019-05-03T14:32:28.704Z,42.49
2019-05-03T14:34:55.037Z,41.54
2019-05-03T14:37:23.418Z,42.34
2019-05-03T14:39:51.806Z,42.27
2019-05-03T14:42:20.192Z,42.40
2019-05-03T14:44:48.613Z,42.93
2019-05-03T14:47:16.995Z,41.85
2019-05-03T14:49:45.393Z,42.01
2019-05-03T14:52:14.721Z,42.51
2019-05-03T14:54:45.126Z,42.19
2019-05-03T14:57:18.105Z,42.68
2019-05-03T15:00:03.394Z,42.17
2019-05-03T15:02:51.143Z,42.60
2019-05-03T15:05:18.803Z,43.01
2019-05-03T15:07:47.186Z,41.62
2019-05-03T15:10:15.676Z,41.65
2019-05-03T15:12:45.252Z,41.85
2019-05-03T15:15:14.749Z,42.15
2019-05-03T15:17:45.299Z,41.59
2019-05-03T15:20:14.815Z,41.50
2019-05-03T15:22:45.299Z,41.01
2019-05-03T15:25:13.747Z,40.81
2019-05-03T15:27:42.197Z,41.04
2019-05-03T15:30:10.920Z,41.97
2019-05-03T15:32:39.301Z,41.52
2019-05-03T15:35:08.139Z,41.96
2019-05-03T15:37:36.524Z,41.24
2019-05-03T15:40:08.080Z,41.32
2019-05-03T15:42:38.189Z,41.86
2019-05-03T15:45:25.382Z,41.64
2019-05-03T15:48:01.174Z,41.81
2019-05-03T15:50:29.562Z,41.83
2019-05-03T15:52:57.948Z,41.68
2019-05-03T15:55:26.326Z,41.59
2019-05-03T15:57:55.262Z,42.35
2019-05-03T16:00:24.448Z,42.78
2019-05-03T16:02:54.709Z,43.74
2019-05-03T16:05:24.930Z,43.32
2019-05-03T16:07:55.170Z,43.56
2019-05-03T16:10:24.937Z,44.03
2019-05-03T16:12:54.562Z,44.31
2019-05-03T16:15:24.571Z,44.20
2019-05-03T16:17:54.767Z,44.35
2019-05-03T16:20:25.123Z,44.61
2019-05-03T16:22:54.488Z,44.76
2019-05-03T16:25:24.924Z,45.07
2019-05-03T16:27:55.339Z,45.27
2019-05-03T16:30:45.409Z,45.28
2019-05-03T16:33:26.238Z,44.90
2019-05-03T16:35:44.525Z,44.97
2019-05-03T16:38:12.955Z,45.27
2019-05-03T16:40:41.333Z,45.27
2019-05-03T16:43:09.754Z,45.13
2019-05-03T16:45:38.140Z,45.27
2019-05-03T16:48:06.613Z,44.95
2019-05-03T16:50:35.021Z,45.36
2019-05-03T16:53:05.442Z,45.38
2019-05-03T16:55:35.185Z,45.31
2019-05-03T16:58:03.815Z,45.18
2019-05-03T17:00:32.202Z,45.56
2019-05-03T17:03:00.580Z,45.76
2019-05-03T17:05:45.685Z,45.41
2019-05-03T17:08:21.334Z,44.80
2019-05-03T17:10:51.363Z,44.56
2019-05-03T17:13:19.757Z,44.77
2019-05-03T17:15:48.178Z,45.48
2019-05-03T17:18:17.264Z,46.27
2019-05-03T17:20:45.813Z,46.44
2019-05-03T17:23:15.478Z,46.79
2019-05-03T17:25:44.488Z,46.97
2019-05-03T17:28:13.065Z,47.12
2019-05-03T17:30:41.449Z,47.25
2019-05-03T17:33:09.909Z,47.28
2019-05-03T17:35:38.371Z,47.61
2019-05-03T17:38:06.767Z,47.59
2019-05-03T17:40:36.776Z,48.10
2019-05-03T17:43:06.801Z,48.42
2019-05-03T17:45:38.030Z,48.69
2019-05-03T17:48:06.500Z,47.30
2019-05-03T17:50:35.278Z,48.01
2019-05-03T17:53:05.327Z,48.11
2019-05-03T17:55:51.683Z,48.41
2019-05-03T17:58:21.710Z,48.20
2019-05-03T18:01:05.529Z,48.83
2019-05-03T18:03:35.220Z,48.77
2019-05-03T18:06:08.050Z,49.06
2019-05-03T18:08:38.177Z,48.98
2019-05-03T18:11:16.920Z,49.41
2019-05-03T18:13:45.303Z,49.23
2019-05-03T18:16:13.681Z,49.19
2019-05-03T18:18:42.216Z,49.29
2019-05-03T18:21:10.825Z,49.66
2019-05-03T18:23:39.214Z,48.94
2019-05-03T18:26:07.671Z,48.99
2019-05-03T18:28:36.094Z,49.03
2019-05-03T18:31:05.435Z,48.97
2019-05-03T18:33:34.881Z,48.94
2019-05-03T18:36:05.439Z,49.22
2019-05-03T18:38:35.249Z,49.70
2019-05-03T18:41:04.639Z,49.78
2019-05-03T18:43:34.713Z,50.12
2019-05-03T18:46:07.425Z,50.08
2019-05-03T18:48:35.879Z,50.36
2019-05-03T18:51:05.418Z,50.27
2019-05-03T18:53:34.456Z,50.33
2019-05-03T18:56:04.614Z,50.29
2019-05-03T18:58:32.948Z,50.57
2019-05-03T19:01:01.336Z,50.55
2019-05-03T19:03:29.718Z,50.19
2019-05-03T19:05:59.814Z,50.10
2019-05-03T19:08:35.614Z,50.63
2019-05-03T19:11:08.419Z,50.42
2019-05-03T19:13:41.286Z,50.55
2019-05-03T19:16:10.262Z,50.80
2019-05-03T19:18:40.213Z,50.72
2019-05-03T19:21:08.597Z,51.07
2019-05-03T19:23:36.979Z,51.36
2019-05-03T19:26:05.665Z,51.30
2019-05-03T19:28:35.435Z,51.22
2019-05-03T19:31:05.467Z,51.64
2019-05-03T19:33:34.810Z,51.88
2019-05-03T19:36:04.509Z,52.17
2019-05-03T19:38:34.982Z,52.36
2019-05-03T19:41:03.025Z,52.89
2019-05-03T19:43:31.413Z,52.98
2019-05-03T19:45:59.798Z,53.34
2019-05-03T19:48:28.181Z,53.41
2019-05-03T19:50:56.571Z,53.41
2019-05-03T19:53:29.258Z,53.48
2019-05-03T19:55:57.862Z,53.40
2019-05-03T19:58:26.199Z,53.32
2019-05-03T20:00:59.097Z,53.87
2019-05-03T20:03:29.118Z,54.04
2019-05-03T20:06:04.960Z,54.31
2019-05-03T20:08:37.591Z,54.32
2019-05-03T20:11:18.447Z,53.67
2019-05-03T20:13:46.835Z,54.12
2019-05-03T20:16:15.665Z,54.02
2019-05-03T20:18:45.443Z,54.06
2019-05-03T20:21:14.934Z,54.06
2019-05-03T20:23:44.769Z,54.47
2019-05-03T20:26:14.976Z,55.30
2019-05-03T20:28:44.855Z,54.30
2019-05-03T20:31:13.570Z,55.18
2019-05-03T20:33:42.065Z,54.81
2019-05-03T20:36:10.465Z,55.08
2019-05-03T20:38:38.845Z,54.99
2019-05-03T20:41:07.243Z,55.05
2019-05-03T20:43:49.144Z,55.51
2019-05-03T20:46:19.187Z,55.96
2019-05-03T20:48:49.285Z,55.84
2019-05-03T20:51:17.679Z,55.88
2019-05-03T20:53:46.064Z,55.42
2019-05-03T20:56:15.431Z,55.38
2019-05-03T20:58:44.656Z,55.32
2019-05-03T21:01:15.145Z,55.15
2019-05-03T21:03:44.977Z,55.71
2019-05-03T21:06:18.233Z,55.44
2019-05-03T21:08:53.592Z,55.46
2019-05-03T21:11:22.153Z,55.46
2019-05-03T21:13:50.538Z,55.94
2019-05-03T21:16:26.389Z,55.64
2019-05-03T21:18:59.085Z,55.75
2019-05-03T21:21:36.303Z,55.60
2019-05-03T21:24:18.279Z,55.88
2019-05-03T21:26:46.672Z,56.08
2019-05-03T21:29:15.242Z,56.06
2019-05-03T21:31:44.551Z,56.14
2019-05-03T21:34:14.638Z,56.35
2019-05-03T21:36:45.205Z,56.15
2019-05-03T21:39:14.642Z,55.92
2019-05-03T21:41:44.638Z,56.13
2019-05-03T21:44:15.418Z,56.08
2019-05-03T21:46:45.549Z,55.97
2019-05-03T21:49:21.781Z,56.07
2019-05-03T21:51:50.164Z,56.14
2019-05-03T21:54:18.558Z,56.27
2019-05-03T21:56:47.010Z,56.11
2019-05-03T21:59:15.399Z,56.15
2019-05-03T22:01:45.656Z,56.58
2019-05-03T22:04:15.663Z,57.03
2019-05-03T22:06:44.462Z,56.67
2019-05-03T22:09:12.952Z,56.81
2019-05-03T22:11:41.345Z,56.41
2019-05-03T22:14:11.375Z,56.75
2019-05-03T22:16:45.002Z,56.75
2019-05-03T22:19:16.288Z,56.55
2019-05-03T22:21:45.374Z,56.71
2019-05-03T22:24:21.328Z,56.75
2019-05-03T22:26:57.036Z,56.67
2019-05-03T22:29:25.662Z,56.75
2019-05-03T22:31:54.836Z,56.60
2019-05-03T22:34:25.492Z,56.86
2019-05-03T22:36:54.863Z,57.46
2019-05-03T22:39:25.062Z,57.31
2019-05-03T22:41:53.527Z,57.17
2019-05-03T22:44:21.914Z,57.49
2019-05-03T22:46:50.293Z,57.64
2019-05-03T22:49:18.688Z,57.71
2019-05-03T22:51:47.067Z,58.09
2019-05-03T22:54:15.588Z,58.65
2019-05-03T22:56:44.741Z,58.41
2019-05-03T22:59:14.715Z,58.95
2019-05-03T23:01:45.511Z,58.71
2019-05-03T23:04:14.681Z,58.75
2019-05-03T23:06:46.711Z,58.68
2019-05-03T23:09:15.704Z,58.59
2019-05-03T23:11:44.788Z,58.76
2019-05-03T23:14:15.051Z,59.04
2019-05-03T23:16:44.803Z,59.49
2019-05-03T23:19:14.905Z,59.53
2019-05-03T23:21:54.441Z,59.64
2019-05-03T23:24:24.689Z,59.59
2019-05-03T23:26:53.195Z,59.72
2019-05-03T23:29:21.899Z,59.48
2019-05-03T23:31:50.241Z,59.32
2019-05-03T23:34:18.628Z,59.43
2019-05-03T23:36:47.015Z,59.26
2019-05-03T23:39:15.407Z,59.19
2019-05-03T23:41:43.790Z,59.46
2019-05-03T23:44:12.251Z,60.21
2019-05-03T23:46:42.283Z,60.17
2019-05-03T23:49:10.748Z,60.59
2019-05-03T23:51:49.550Z,60.72
2019-05-03T23:54:18.003Z,60.51
2019-05-03T23:56:46.398Z,60.93
2019-05-03T23:59:15.016Z,60.93
